TFM - Tactical Decision Aid
ID: Runway Winds: CIG/VIS Threshold:

KAVL - Asheville Muni, NC, US

Updated at: 0751 UTC 18 Sep 2021
Latest TAF at: 0532 UTC 18 Sep 2021

TAF Board

Time0733Z 18/08Z 18/09Z 18/10Z 18/11Z 18/12Z 18/13Z 18/14Z 18/15Z 18/16Z 18/17Z 18/18Z 18/19Z 18/20Z>>
Type OBS PRVL
  [TEMP]  
PRVL
  [TEMP]  
PRVL
  [TEMP]  
PRVL
  [TEMP]  
PRVL PRVL PRVL PRVL PRVL PRVL
  [PRB30]  
PRVL
  [PRB30]  
PRVL
  [PRB30]  
PRVL
  [PRB30]  
VIS 3 2
  [0.5]  
2
  [0.5]  
2
  [0.5]  
2
  [0.5]  
2 3 >6 >6 >6 >6
  [4]  
>6
  [4]  
>6
  [4]  
>6
  [4]  
CIG 2 9
  [2]  
9
  [2]  
9
  [2]  
9
  [2]  
9 17 30 30 30 30
  [15]  
30
  [15]  
30
  [15]  
30
  [15]  
Cover OVC BKN
  [BKN]  
BKN
  [BKN]  
BKN
  [BKN]  
BKN
  [BKN]  
BKN BKN BKN BKN BKN BKN
  [OVC]  
BKN
  [OVC]  
BKN
  [OVC]  
BKN
  [OVC]  
FltCat LIFR IFR
  [LIFR]  
IFR
  [LIFR]  
IFR
  [LIFR]  
IFR
  [LIFR]  
IFR MVFR MVFR MVFR MVFR MVFR
  [MVFR]  
MVFR
  [MVFR]  
MVFR
  [MVFR]  
MVFR
  [MVFR]  
WX BR BR
  [FG]  
BR
  [FG]  
BR
  [FG]  
BR
  [FG]  
BR BR -- -- -- --
  [TSRA BR]  
--
  [TSRA BR]  
--
  [TSRA BR]  
--
  [TSRA BR]  
WDir 350 VRB
[VRB]
VRB
[VRB]
VRB
[VRB]
VRB
[VRB]
VRB VRB VRB VRB VRB VRB
[VRB]
VRB
[VRB]
VRB
[VRB]
VRB
[VRB]
WSpd 3 0
  [0]  
0
  [0]  
0
  [0]  
0
  [0]  
0 2 2 2 2 2
  [2]  
2
  [2]  
2
  [2]  
2
  [2]  
WGst -- --
  [--]  
--
  [--]  
--
  [--]  
--
  [--]  
-- -- -- -- -- --
  [--]  
--
  [--]  
--
  [--]  
--
  [--]  

TDA Impact Legend

  None Marginal Slight Moderate High
Visibility (sm) >5 2.9≤X≤5 0.9≤X<2.9 <0.9
Ceiling (100 ft) >30 9.9≤X≤30 4.9≤X<9.9 <4.9
Wind Speed (kt) <15 15≤X<25 25≤X<30 ≥30
Wind Gust (kt) <15 15≤X<25 25≤X<35 ≥35
Weather No Wx Reported VCTS -TS,-FZRA TS,FZRA +TS,+FZRA
TAF
KAVL 180532Z 1806/1906 21003KT 5SM BR SCT009 BKN050
  FM180700 00000KT 2SM BR SCT002 BKN009
  TEMPO 1808/1812 1/2SM FG BKN002
  FM181300 VRB02KT 3SM BR SCT009 BKN017
  FM181400 VRB02KT P6SM BKN030
  PROB30 1817/1823 4SM TSRA BR OVC015CB
  FM182300 VRB02KT P6SM BKN035


METAR
KAVL 180733Z AUTO 35003KT 3SM R35/3500VP6000FT BR OVC002 18/18 A3021 RMK AO2 T01830183
KAVL 180724Z AUTO 00000KT 1 3/4SM R35/4500VP6000FT BR OVC002 18/18 A3022 RMK AO2 VIS 1V5 T01830183
KAVL 180703Z AUTO 33003KT 6SM BR OVC002 18/18 A3022 RMK AO2 T01830183
KAVL 180654Z AUTO 00000KT 6SM BR OVC003 18/18 A3021 RMK AO2 SLP209 T01830183
KAVL 180631Z AUTO 34003KT 8SM BKN003 BKN060 OVC100 18/18 A3021 RMK AO2 T01830178
KAVL 180618Z AUTO 00000KT 9SM FEW005 BKN060 OVC100 18/18 A3022 RMK AO2 T01780178
KAVL 180554Z AUTO 00000KT 9SM OVC055 18/18 A3021 RMK AO2 SLP211 T01830178 10206 20178 58007
KAVL 180454Z AUTO 21003KT 6SM R35/3500VP6000FT BR BKN050 18/18 A3023 RMK AO2 SLP215 T01780178 402390178
KAVL 180422Z AUTO 00000KT 7SM SCT006 18/18 A3023 RMK AO2 T01830183

Radar Display
Forecast Discussion